EDISTO NM Southeast of Charleston, SC (41004)

Conditions for Tuesday

Daily
Weekly
Monthly
Marine Data Graph

Current Weather/Wave Observations

Air Temperature: 76° F
Humidity: 83
Wind direction (W Dir): NNW (325 - 334 Degrees)
Wind Speed (W Spd): 11.7 kts (13.4 mph)
Wind Gust (W Spd): 13.6 kts (15.7 mph)
Atmospheric Pressure (AP): 29.85 in

Updated: 12:30 PM EDT on September 26, 2017

Marine & Boating Location Search

Enter a coastal zip code for marine weather.

Current Wave Detail Observations

Water Depth: 125 ft
Wave Height: 6.79 ft
Spectral Peak Period: 12.9 sec
Average Wave Period: 6.7 sec
Sampling Interval: 0.6 sec
Wave Record: 2400 sec

Updated: 12:00 PM EDT on September 26, 2017

General Information

Location: 32.501 North -79.099 West
Buoy Type: 3-meter discus buoy
Buoy Hull: 3D58
Payload: ARES payload
Owned by: NDBC
Windspeed: Measured by obtained from anemometer
Sea Surface: Measured by Intake
Note:
Right whales are active off SC from November to April. Speed restrictions of 10 knots apply to vessels 65 feet or greater in specific areas and times along the U.S. East Coast. It is illegal to approach right whales within 500 yards. To learn more about right whales and rules protecting them, go to: http://www.nmfs.noaa.gov/pr/shipstrike.

Weather and Wave Data

Time Temp Humidity Wind Dominant Wave Wind Wave Wave Swell Pressure
  Air
(°F)
Water
(°F)
  Dir Speed
(kts)
Speed
(mph)
Period
(sec)
Height
(ft)
Range
(ft)
Period
(sec)
Height
(ft)
Range
(ft)
Period
(sec)
Height
(ft)
Range
(ft)
Atmo.
(in)
Tend.
(in)
20:10 78 81 77 North 19.4 22.4 - - - - - - 29.83 -
20:20 78 81 78 North 17.5 20.1 - - - - - - 29.83 -
20:30 78 81 77 North 17.5 20.1 - - - - - - 29.83 -
20:40 78 81 78 North 17.5 20.1 - - - - - - 29.83 -
20:50 78 81 78 North 17.5 20.1 11 7.22 exactly 7.2 6 4.92 4.10 - 5.74 11 4.92 4.10 - 5.74 29.83 -
21:00 78 81 79 North 17.5 20.1 - - - - - - 29.83 -
21:10 78 81 80 North 17.5 20.1 - - - - - - 29.83 -
21:20 78 81 80 North 15.6 17.9 - - - - - - 29.83 -
21:30 78 81 80 North 17.5 20.1 - - - - - - 29.83 -
21:40 78 81 81 North 15.6 17.9 - - - - - - 29.83 -
21:50 78
-
81 North 17.5 20.1 11 7.87 exactly 7.9 7 4.92 4.10 - 5.74 11 6.56 5.74 - 7.38 29.83 -
22:10 79 81 77 North 17.5 20.1 - - - - - - 29.83 -
22:20 79 81 78 North 17.5 20.1 - - - - - - 29.83 -
22:30 79 81 78 North 17.5 20.1 - - - - - - 29.83 -
22:40 79 81 78 North 17.5 20.1 - - - - - - 29.83 -
22:50 79 81 77 North 17.5 20.1 10 8.20 exactly 8.2 7 4.92 4.10 - 5.74 10 6.56 5.74 - 7.38 29.83 -
23:10 79
-
76 North 17.5 20.1 - - - - - - 29.83 -
23:20 79 81 76 North 17.5 20.1 - - - - - - 29.83 -
23:40 79 81 76 North 17.5 20.1 - - - - - - 29.82 -
23:50 79 81 77 North 15.6 17.9 11 7.87 exactly 7.9 7 4.92 4.10 - 5.74 11 6.56 5.74 - 7.38 29.83 -
00:10 79 81 76 North 15.6 17.9 - - - - - - 29.83 -
00:30 79 81 76 North 15.6 17.9 - - - - - - 29.83 -
00:40 79 81 76 North 15.6 17.9 - - - - - - 29.83 -
00:50 79 81 77 North 13.6 15.7 11 7.87 exactly 7.9 7 4.92 4.10 - 5.74 11 6.56 5.74 - 7.38 29.83 -
01:00 79 81 76 North 15.6 17.9 - - - - - - 29.83 -
01:10 79 81 76 North 15.6 17.9 - - - - - - 29.82 -
01:20 79 81 76 North 13.6 15.7 - - - - - - 29.82 -
01:30 78 81 79 North 13.6 15.7 - - - - - - 29.82 -
01:40 78 81 79 North 13.6 15.7 - - - - - - 29.82 -
02:10 78 81 78 North 13.6 15.7 - - - - - - 29.81 -
02:20 78 81 79 North 13.6 15.7 - - - - - - 29.81 -
02:40 78 81 78 North 13.6 15.7 - - - - - - 29.81 -
03:00 78 81 80 NNW 11.7 13.4 - - - - - - 29.81 -0.02
03:10 78 81 80 NNW 13.6 15.7 - - - - - - 29.80 -
03:20 78 81 80 NNW 13.6 15.7 - - - - - - 29.80 -
03:30 77 81 82 NNW 13.6 15.7 - - - - - - 29.80 -
03:40 77 81 83 NNW 13.6 15.7 - - - - - - 29.81 -
03:50 77 81 81 NNW 13.6 15.7 7 7.22 exactly 7.2 6 3.28 2.46 - 4.10 7 6.56 5.74 - 7.38 29.80 -
04:00 77 81 82 NNW 13.6 15.7 - - - - - - 29.80 -0.02
04:10 77 81 81 NNW 13.6 15.7 - - - - - - 29.80 -
04:20 77 81 81 NNW 13.6 15.7 - - - - - - 29.79 -
04:30 77 81 81 NNW 13.6 15.7 - - - - - - 29.79 -
04:40 77 81 81 North 13.6 15.7 - - - - - - 29.80 -
04:50 77 81 81 NNW 13.6 15.7 13 7.55 exactly 7.5 7 4.92 4.10 - 5.74 13 6.56 5.74 - 7.38 29.80 -
05:10 77 81 79 NNW 15.6 17.9 - - - - - - 29.80 -
05:20 76 81 83 NNW 15.6 17.9 - - - - - - 29.81 -
05:30 76 81 83 North 15.6 17.9 - - - - - - 29.80 -
05:40 76 81 84 North 15.6 17.9 - - - - - - 29.80 -
05:50 76 81 84 North 13.6 15.7 10 7.22 exactly 7.2 5 4.92 4.10 - 5.74 10 6.56 5.74 - 7.38 29.81 -
06:10 76 81 84 North 13.6 15.7 - - - - - - 29.81 -
06:20 76 81 85 North 13.6 15.7 - - - - - - 29.81 -
06:30 76 81 84 North 13.6 15.7 - - - - - - 29.82 -
06:40 76 81 84 North 13.6 15.7 - - - - - - 29.82 -
06:50 76 81 84 NNW 13.6 15.7 13 6.56 exactly 6.6 6 4.92 4.10 - 5.74 13 4.92 4.10 - 5.74 29.82 -
07:00 76 81 84 NNW 13.6 15.7 - - - - - - 29.83 +0.02
07:10 76 81 85 NNW 13.6 15.7 - - - - - - 29.83 -
07:20 76 81 84 NNW 13.6 15.7 - - - - - - 29.83 -
07:30 76 81 84 NNW 15.6 17.9 - - - - - - 29.84 -
07:40 76 81 86 North 13.6 15.7 - - - - - - 29.84 -
08:00 76 81 86 North 13.6 15.7 - - - - - - 29.84 +0.04
08:10 76 81 84 North 13.6 15.7 - - - - - - 29.84 -
08:20 81
-
North 13.6 15.7 - - - - - - 29.85 -
08:30 75 81 88 North 13.6 15.7 - - - - - - 29.85 -
08:40 75 81 87 North 13.6 15.7 - - - - - - 29.85 -
08:50 75 81 88 North 13.6 15.7 12 6.56 exactly 6.6 7 4.92 4.10 - 5.74 12 4.92 4.10 - 5.74 29.85 -
09:20 75 81 89 North 13.6 15.7 - - - - - - 29.85 -
09:30 75 81 89 NNW 13.6 15.7 - - - - - - 29.85 -
09:40 75 81 88 NNW 11.7 13.4 - - - - - - 29.85 -
09:50 75 81 87 NNW 11.7 13.4 11 6.56 exactly 6.6 6 3.28 2.46 - 4.10 11 4.92 4.10 - 5.74 29.86 -
10:10 75 81 88 NW 11.7 13.4 - - - - - - 29.86 -
10:20 75 81 87 NW 11.7 13.4 - - - - - - 29.86 -
10:30 75 81 87 NNW 11.7 13.4 - - - - - - 29.86 -
10:40 75 81 87 NNW 11.7 13.4 - - - - - - 29.86 -
10:50 75 81 87 NNW 11.7 13.4 12 6.89 exactly 6.9 5 3.28 2.46 - 4.10 12 6.56 5.74 - 7.38 29.87 -
11:00 75 81 88 NNW 11.7 13.4 - - - - - - 29.86 +0.02
11:10 75 81 87 NNW 11.7 13.4 - - - - - - 29.86 -
11:20 75 81 87 NNW 11.7 13.4 - - - - - - 29.86 -
11:30 75 81 87 NNW 9.7 11.2 - - - - - - 29.86 -
11:40 75 81 86 NNW 11.7 13.4 - - - - - - 29.86 -
12:10 75 81 85 NNW 9.7 11.2 - - - - - - 29.86 -
12:30 76 81 83 NNW 11.7 13.4 - - - - - - 29.85 -

Detailed Wave Spectra

Time Water Depth Wave Height Spectral Peak Period Average Wave Period Sampling Interval Wave Record
20:00 125 ft 8.50 ft 12.9 sec 7.0 sec 0.6 sec 2400 sec
22:00 125 ft 7.81 ft 11.4 sec 6.6 sec 0.6 sec 2400 sec
23:00 125 ft 8.17 ft 10.0 sec 6.6 sec 0.6 sec 2400 sec
00:00 125 ft 7.81 ft 11.4 sec 6.5 sec 0.6 sec 2400 sec
05:00 125 ft 7.38 ft 12.9 sec 6.6 sec 0.6 sec 2400 sec
06:00 125 ft 7.19 ft 10.0 sec 6.3 sec 0.6 sec 2400 sec
09:00 125 ft 6.53 ft 12.1 sec 6.2 sec 0.6 sec 2400 sec
10:00 125 ft 6.53 ft 10.8 sec 6.2 sec 0.6 sec 2400 sec
12:00 125 ft 6.79 ft 12.9 sec 6.7 sec 0.6 sec 2400 sec